sensor_id;sensor_type;location;lat;lon;timestamp;pressure;altitude;pressure_sealevel;temperature;humidity
62946;BME280;52164;52.212;-1.010;2023-03-14T00:01:29;97820.60;;;6.67;86.98
62946;BME280;52164;52.212;-1.010;2023-03-14T00:03:54;97829.50;;;6.65;86.73
62946;BME280;52164;52.212;-1.010;2023-03-14T00:06:19;97838.98;;;6.62;86.42
62946;BME280;52164;52.212;-1.010;2023-03-14T00:08:46;97846.89;;;6.58;86.41
62946;BME280;52164;52.212;-1.010;2023-03-14T00:11:14;97851.65;;;6.52;86.48
62946;BME280;52164;52.212;-1.010;2023-03-14T00:13:40;97860.27;;;6.48;86.44
62946;BME280;52164;52.212;-1.010;2023-03-14T00:16:06;97854.05;;;6.42;86.52
62946;BME280;52164;52.212;-1.010;2023-03-14T00:18:34;97861.41;;;6.38;86.37
62946;BME280;52164;52.212;-1.010;2023-03-14T00:21:00;97863.95;;;6.36;86.48
62946;BME280;52164;52.212;-1.010;2023-03-14T00:23:27;97867.75;;;6.32;86.09
62946;BME280;52164;52.212;-1.010;2023-03-14T00:25:52;97866.61;;;6.29;86.09
62946;BME280;52164;52.212;-1.010;2023-03-14T00:28:17;97871.84;;;6.25;86.38
62946;BME280;52164;52.212;-1.010;2023-03-14T00:30:43;97877.63;;;6.20;85.72
62946;BME280;52164;52.212;-1.010;2023-03-14T00:33:08;97887.83;;;6.16;86.02
62946;BME280;52164;52.212;-1.010;2023-03-14T00:35:33;97892.00;;;6.11;85.52
62946;BME280;52164;52.212;-1.010;2023-03-14T00:37:58;97895.11;;;6.07;85.53
62946;BME280;52164;52.212;-1.010;2023-03-14T00:40:24;97903.94;;;6.01;85.30
62946;BME280;52164;52.212;-1.010;2023-03-14T00:42:49;97911.77;;;5.98;85.44
62946;BME280;52164;52.212;-1.010;2023-03-14T00:45:14;97914.66;;;5.95;85.23
62946;BME280;52164;52.212;-1.010;2023-03-14T00:47:40;97925.70;;;5.92;85.18
62946;BME280;52164;52.212;-1.010;2023-03-14T00:50:05;97930.73;;;5.89;85.00
62946;BME280;52164;52.212;-1.010;2023-03-14T00:52:30;97927.68;;;5.82;84.72
62946;BME280;52164;52.212;-1.010;2023-03-14T00:54:57;97943.38;;;5.76;84.55
62946;BME280;52164;52.212;-1.010;2023-03-14T00:57:23;97953.47;;;5.69;84.25
62946;BME280;52164;52.212;-1.010;2023-03-14T00:59:48;97951.33;;;5.61;83.92
62946;BME280;52164;52.212;-1.010;2023-03-14T01:02:13;97962.27;;;5.54;83.77
62946;BME280;52164;52.212;-1.010;2023-03-14T01:04:38;97970.20;;;5.47;83.74
62946;BME280;52164;52.212;-1.010;2023-03-14T01:07:04;97985.38;;;5.40;83.49
62946;BME280;52164;52.212;-1.010;2023-03-14T01:09:29;97987.11;;;5.32;83.42
62946;BME280;52164;52.212;-1.010;2023-03-14T01:11:55;98001.55;;;5.26;83.55
62946;BME280;52164;52.212;-1.010;2023-03-14T01:14:20;98009.96;;;5.20;83.30
62946;BME280;52164;52.212;-1.010;2023-03-14T01:16:45;98012.56;;;5.15;83.27
62946;BME280;52164;52.212;-1.010;2023-03-14T01:19:13;98026.59;;;5.10;83.45
62946;BME280;52164;52.212;-1.010;2023-03-14T01:21:38;98019.79;;;5.05;83.45
62946;BME280;52164;52.212;-1.010;2023-03-14T01:24:04;98021.30;;;5.01;83.25
62946;BME280;52164;52.212;-1.010;2023-03-14T01:26:30;98027.88;;;4.98;83.00
62946;BME280;52164;52.212;-1.010;2023-03-14T01:28:56;98028.68;;;4.92;83.16
62946;BME280;52164;52.212;-1.010;2023-03-14T01:31:22;98041.46;;;4.89;83.22
62946;BME280;52164;52.212;-1.010;2023-03-14T01:33:47;98041.88;;;4.85;82.95
62946;BME280;52164;52.212;-1.010;2023-03-14T01:36:13;98049.89;;;4.82;82.84
62946;BME280;52164;52.212;-1.010;2023-03-14T01:38:39;98053.98;;;4.79;82.79
62946;BME280;52164;52.212;-1.010;2023-03-14T01:41:05;98053.14;;;4.77;82.70
62946;BME280;52164;52.212;-1.010;2023-03-14T01:43:30;98065.20;;;4.75;82.74
62946;BME280;52164;52.212;-1.010;2023-03-14T01:47:00;98069.14;;;4.72;82.58
62946;BME280;52164;52.212;-1.010;2023-03-14T01:48:47;98079.27;;;4.67;82.46
62946;BME280;52164;52.212;-1.010;2023-03-14T01:51:17;98088.35;;;4.63;82.46
62946;BME280;52164;52.212;-1.010;2023-03-14T01:53:43;98099.36;;;4.59;82.65
62946;BME280;52164;52.212;-1.010;2023-03-14T01:56:09;98102.08;;;4.54;82.30
62946;BME280;52164;52.212;-1.010;2023-03-14T01:58:36;98112.36;;;4.52;82.37
62946;BME280;52164;52.212;-1.010;2023-03-14T02:01:02;98116.64;;;4.48;82.00
62946;BME280;52164;52.212;-1.010;2023-03-14T02:03:28;98116.16;;;4.45;81.83
62946;BME280;52164;52.212;-1.010;2023-03-14T02:05:54;98115.52;;;4.40;81.83
62946;BME280;52164;52.212;-1.010;2023-03-14T02:08:21;98124.74;;;4.37;81.65
62946;BME280;52164;52.212;-1.010;2023-03-14T02:10:47;98129.92;;;4.32;81.59
62946;BME280;52164;52.212;-1.010;2023-03-14T02:13:14;98137.56;;;4.28;81.36
62946;BME280;52164;52.212;-1.010;2023-03-14T02:15:39;98137.26;;;4.24;80.92
62946;BME280;52164;52.212;-1.010;2023-03-14T02:18:05;98149.52;;;4.19;80.76
62946;BME280;52164;52.212;-1.010;2023-03-14T02:22:58;98168.00;;;4.08;79.79
62946;BME280;52164;52.212;-1.010;2023-03-14T02:25:34;98164.17;;;4.04;79.63
62946;BME280;52164;52.212;-1.010;2023-03-14T02:28:05;98163.89;;;3.98;79.38
62946;BME280;52164;52.212;-1.010;2023-03-14T02:30:30;98173.29;;;3.93;79.51
62946;BME280;52164;52.212;-1.010;2023-03-14T02:32:58;98178.79;;;3.90;79.34
62946;BME280;52164;52.212;-1.010;2023-03-14T02:35:26;98179.52;;;3.88;79.06
62946;BME280;52164;52.212;-1.010;2023-03-14T02:37:53;98178.65;;;3.86;78.77
62946;BME280;52164;52.212;-1.010;2023-03-14T02:40:20;98181.14;;;3.84;78.70
62946;BME280;52164;52.212;-1.010;2023-03-14T02:42:45;98189.66;;;3.80;78.40
62946;BME280;52164;52.212;-1.010;2023-03-14T02:47:37;98200.14;;;3.72;78.48
62946;BME280;52164;52.212;-1.010;2023-03-14T02:50:08;98209.17;;;3.68;78.30
62946;BME280;52164;52.212;-1.010;2023-03-14T02:52:34;98213.60;;;3.66;78.18
62946;BME280;52164;52.212;-1.010;2023-03-14T02:54:59;98217.67;;;3.65;77.67
62946;BME280;52164;52.212;-1.010;2023-03-14T02:57:25;98221.91;;;3.65;77.68
62946;BME280;52164;52.212;-1.010;2023-03-14T02:59:50;98240.80;;;3.63;77.67
62946;BME280;52164;52.212;-1.010;2023-03-14T03:02:15;98242.73;;;3.62;77.50
62946;BME280;52164;52.212;-1.010;2023-03-14T03:04:41;98240.98;;;3.62;77.83
62946;BME280;52164;52.212;-1.010;2023-03-14T03:07:06;98251.02;;;3.64;77.80
62946;BME280;52164;52.212;-1.010;2023-03-14T03:09:31;98250.83;;;3.65;77.76
62946;BME280;52164;52.212;-1.010;2023-03-14T03:11:57;98264.92;;;3.67;77.66
62946;BME280;52164;52.212;-1.010;2023-03-14T03:14:22;98269.32;;;3.69;77.47
62946;BME280;52164;52.212;-1.010;2023-03-14T03:16:47;98276.04;;;3.69;77.27
62946;BME280;52164;52.212;-1.010;2023-03-14T03:19:13;98278.50;;;3.69;77.29
62946;BME280;52164;52.212;-1.010;2023-03-14T03:21:42;98285.55;;;3.69;77.06
62946;BME280;52164;52.212;-1.010;2023-03-14T03:24:07;98290.32;;;3.69;77.18
62946;BME280;52164;52.212;-1.010;2023-03-14T03:26:34;98292.61;;;3.68;77.24
62946;BME280;52164;52.212;-1.010;2023-03-14T03:29:00;98298.63;;;3.67;77.27
62946;BME280;52164;52.212;-1.010;2023-03-14T03:31:25;98304.80;;;3.66;77.23
62946;BME280;52164;52.212;-1.010;2023-03-14T03:33:50;98305.33;;;3.67;77.23
62946;BME280;52164;52.212;-1.010;2023-03-14T03:36:18;98310.09;;;3.68;77.13
62946;BME280;52164;52.212;-1.010;2023-03-14T03:38:45;98314.84;;;3.68;77.27
62946;BME280;52164;52.212;-1.010;2023-03-14T03:41:10;98324.70;;;3.70;76.99
62946;BME280;52164;52.212;-1.010;2023-03-14T03:43:36;98329.28;;;3.72;76.60
62946;BME280;52164;52.212;-1.010;2023-03-14T03:46:03;98332.09;;;3.73;76.42
62946;BME280;52164;52.212;-1.010;2023-03-14T03:48:29;98338.08;;;3.74;76.38
62946;BME280;52164;52.212;-1.010;2023-03-14T03:50:54;98338.09;;;3.74;76.43
62946;BME280;52164;52.212;-1.010;2023-03-14T03:53:19;98345.52;;;3.71;76.23
62946;BME280;52164;52.212;-1.010;2023-03-14T03:55:45;98352.77;;;3.69;75.95
62946;BME280;52164;52.212;-1.010;2023-03-14T03:58:14;98357.20;;;3.67;75.78
62946;BME280;52164;52.212;-1.010;2023-03-14T04:00:39;98374.66;;;3.65;76.02
62946;BME280;52164;52.212;-1.010;2023-03-14T04:03:04;98377.66;;;3.65;76.19
62946;BME280;52164;52.212;-1.010;2023-03-14T04:05:30;98384.73;;;3.65;76.15
62946;BME280;52164;52.212;-1.010;2023-03-14T04:07:55;98385.61;;;3.65;75.59
62946;BME280;52164;52.212;-1.010;2023-03-14T04:10:21;98394.25;;;3.64;75.54
62946;BME280;52164;52.212;-1.010;2023-03-14T04:12:46;98401.15;;;3.63;75.10
62946;BME280;52164;52.212;-1.010;2023-03-14T04:15:11;98408.92;;;3.61;75.07
62946;BME280;52164;52.212;-1.010;2023-03-14T04:17:36;98418.27;;;3.61;75.36
62946;BME280;52164;52.212;-1.010;2023-03-14T04:20:02;98420.02;;;3.60;75.39
62946;BME280;52164;52.212;-1.010;2023-03-14T04:22:29;98424.45;;;3.62;75.48
62946;BME280;52164;52.212;-1.010;2023-03-14T04:24:55;98426.90;;;3.64;75.73
62946;BME280;52164;52.212;-1.010;2023-03-14T04:27:20;98431.83;;;3.65;75.83
62946;BME280;52164;52.212;-1.010;2023-03-14T04:29:45;98435.86;;;3.67;75.64
62946;BME280;52164;52.212;-1.010;2023-03-14T04:32:10;98443.45;;;3.68;75.33
62946;BME280;52164;52.212;-1.010;2023-03-14T04:34:35;98446.63;;;3.69;75.11
62946;BME280;52164;52.212;-1.010;2023-03-14T04:37:01;98451.21;;;3.68;75.20
62946;BME280;52164;52.212;-1.010;2023-03-14T04:39:26;98457.56;;;3.68;75.19
62946;BME280;52164;52.212;-1.010;2023-03-14T04:41:51;98466.56;;;3.67;75.01
62946;BME280;52164;52.212;-1.010;2023-03-14T04:44:17;98479.28;;;3.65;75.14
62946;BME280;52164;52.212;-1.010;2023-03-14T04:46:42;98485.81;;;3.62;74.91
62946;BME280;52164;52.212;-1.010;2023-03-14T04:49:08;98492.00;;;3.59;75.13
62946;BME280;52164;52.212;-1.010;2023-03-14T04:51:33;98496.78;;;3.57;75.42
62946;BME280;52164;52.212;-1.010;2023-03-14T04:53:58;98509.13;;;3.55;75.62
62946;BME280;52164;52.212;-1.010;2023-03-14T04:56:24;98511.96;;;3.51;75.62
62946;BME280;52164;52.212;-1.010;2023-03-14T04:58:53;98517.98;;;3.48;75.75
62946;BME280;52164;52.212;-1.010;2023-03-14T05:01:18;98521.86;;;3.46;75.76
62946;BME280;52164;52.212;-1.010;2023-03-14T05:03:44;98520.29;;;3.41;75.84
62946;BME280;52164;52.212;-1.010;2023-03-14T05:06:09;98524.73;;;3.36;76.15
62946;BME280;52164;52.212;-1.010;2023-03-14T05:08:34;98535.11;;;3.32;75.85
62946;BME280;52164;52.212;-1.010;2023-03-14T05:11:00;98547.13;;;3.30;75.92
62946;BME280;52164;52.212;-1.010;2023-03-14T05:13:25;98552.95;;;3.29;76.38
62946;BME280;52164;52.212;-1.010;2023-03-14T05:15:50;98558.05;;;3.29;76.60
62946;BME280;52164;52.212;-1.010;2023-03-14T05:18:16;98556.98;;;3.31;76.98
62946;BME280;52164;52.212;-1.010;2023-03-14T05:20:41;98567.02;;;3.34;77.09
62946;BME280;52164;52.212;-1.010;2023-03-14T05:23:08;98572.69;;;3.36;77.30
62946;BME280;52164;52.212;-1.010;2023-03-14T05:25:34;98579.20;;;3.38;77.56
62946;BME280;52164;52.212;-1.010;2023-03-14T05:27:59;98591.55;;;3.39;78.11
62946;BME280;52164;52.212;-1.010;2023-03-14T05:30:24;98601.06;;;3.39;77.99
62946;BME280;52164;52.212;-1.010;2023-03-14T05:32:49;98607.77;;;3.38;78.69
62946;BME280;52164;52.212;-1.010;2023-03-14T05:35:15;98613.41;;;3.36;79.09
62946;BME280;52164;52.212;-1.010;2023-03-14T05:37:40;98622.23;;;3.35;79.68
62946;BME280;52164;52.212;-1.010;2023-03-14T05:40:06;98635.09;;;3.35;79.96
62946;BME280;52164;52.212;-1.010;2023-03-14T05:42:32;98640.04;;;3.37;80.14
62946;BME280;52164;52.212;-1.010;2023-03-14T05:44:57;98641.27;;;3.38;80.16
62946;BME280;52164;52.212;-1.010;2023-03-14T05:47:23;98651.30;;;3.39;80.40
62946;BME280;52164;52.212;-1.010;2023-03-14T05:49:48;98662.42;;;3.41;80.28
62946;BME280;52164;52.212;-1.010;2023-03-14T05:52:14;98674.75;;;3.41;80.45
62946;BME280;52164;52.212;-1.010;2023-03-14T05:54:39;98683.76;;;3.41;80.77
62946;BME280;52164;52.212;-1.010;2023-03-14T05:57:04;98695.57;;;3.42;80.77
62946;BME280;52164;52.212;-1.010;2023-03-14T05:59:30;98702.80;;;3.41;80.89
62946;BME280;52164;52.212;-1.010;2023-03-14T06:01:55;98713.39;;;3.40;80.60
62946;BME280;52164;52.212;-1.010;2023-03-14T06:04:20;98727.33;;;3.40;81.09
62946;BME280;52164;52.212;-1.010;2023-03-14T06:06:46;98736.67;;;3.39;80.91
62946;BME280;52164;52.212;-1.010;2023-03-14T06:09:11;98744.61;;;3.35;81.06
62946;BME280;52164;52.212;-1.010;2023-03-14T06:11:36;98755.89;;;3.35;81.49
62946;BME280;52164;52.212;-1.010;2023-03-14T06:14:02;98767.88;;;3.33;81.62
62946;BME280;52164;52.212;-1.010;2023-03-14T06:16:27;98771.58;;;3.31;81.45
62946;BME280;52164;52.212;-1.010;2023-03-14T06:18:52;98777.91;;;3.27;81.68
62946;BME280;52164;52.212;-1.010;2023-03-14T06:21:17;98789.55;;;3.24;81.53
62946;BME280;52164;52.212;-1.010;2023-03-14T06:23:44;98801.52;;;3.20;81.75
62946;BME280;52164;52.212;-1.010;2023-03-14T06:26:09;98813.68;;;3.14;81.56
62946;BME280;52164;52.212;-1.010;2023-03-14T06:28:36;98827.59;;;3.07;81.41
62946;BME280;52164;52.212;-1.010;2023-03-14T06:31:01;98833.73;;;3.00;81.41
62946;BME280;52164;52.212;-1.010;2023-03-14T06:33:27;98848.70;;;2.95;81.81
62946;BME280;52164;52.212;-1.010;2023-03-14T06:35:52;98856.60;;;2.90;81.69
62946;BME280;52164;52.212;-1.010;2023-03-14T06:38:18;98865.55;;;2.84;81.55
62946;BME280;52164;52.212;-1.010;2023-03-14T06:40:43;98879.09;;;2.78;82.15
62946;BME280;52164;52.212;-1.010;2023-03-14T06:43:08;98894.39;;;2.73;81.83
62946;BME280;52164;52.212;-1.010;2023-03-14T06:45:34;98902.25;;;2.61;81.65
62946;BME280;52164;52.212;-1.010;2023-03-14T06:47:59;98905.00;;;2.50;81.58
62946;BME280;52164;52.212;-1.010;2023-03-14T06:50:24;98914.80;;;2.41;81.63
62946;BME280;52164;52.212;-1.010;2023-03-14T06:52:50;98928.67;;;2.34;82.02
62946;BME280;52164;52.212;-1.010;2023-03-14T06:55:15;98931.41;;;2.26;82.05
62946;BME280;52164;52.212;-1.010;2023-03-14T06:57:41;98942.65;;;2.23;82.33
62946;BME280;52164;52.212;-1.010;2023-03-14T07:00:07;98947.73;;;2.20;82.08
62946;BME280;52164;52.212;-1.010;2023-03-14T07:02:32;98960.22;;;2.19;82.27
62946;BME280;52164;52.212;-1.010;2023-03-14T07:04:58;98972.38;;;2.20;82.70
62946;BME280;52164;52.212;-1.010;2023-03-14T07:07:24;98977.31;;;2.21;82.67
62946;BME280;52164;52.212;-1.010;2023-03-14T07:09:49;98984.23;;;2.25;82.82
62946;BME280;52164;52.212;-1.010;2023-03-14T07:12:14;98998.70;;;2.32;83.02
62946;BME280;52164;52.212;-1.010;2023-03-14T07:14:40;99009.52;;;2.39;83.21
62946;BME280;52164;52.212;-1.010;2023-03-14T07:17:05;99021.54;;;2.45;82.86
62946;BME280;52164;52.212;-1.010;2023-03-14T07:19:30;99033.39;;;2.51;83.11
62946;BME280;52164;52.212;-1.010;2023-03-14T07:21:55;99040.84;;;2.58;83.27
62946;BME280;52164;52.212;-1.010;2023-03-14T07:24:21;99051.29;;;2.64;83.31
62946;BME280;52164;52.212;-1.010;2023-03-14T07:26:47;99065.45;;;2.72;83.19
62946;BME280;52164;52.212;-1.010;2023-03-14T07:29:12;99073.05;;;2.74;82.87
62946;BME280;52164;52.212;-1.010;2023-03-14T07:31:37;99087.52;;;2.78;82.54
62946;BME280;52164;52.212;-1.010;2023-03-14T07:34:03;99093.70;;;2.80;82.85
62946;BME280;52164;52.212;-1.010;2023-03-14T07:36:28;99104.83;;;2.82;82.46
62946;BME280;52164;52.212;-1.010;2023-03-14T07:38:53;99117.16;;;2.83;82.17
62946;BME280;52164;52.212;-1.010;2023-03-14T07:41:18;99125.46;;;2.84;82.32
62946;BME280;52164;52.212;-1.010;2023-03-14T07:43:45;99140.63;;;2.87;82.17
62946;BME280;52164;52.212;-1.010;2023-03-14T07:46:11;99145.23;;;2.88;82.32
62946;BME280;52164;52.212;-1.010;2023-03-14T07:48:36;99152.28;;;2.89;81.86
62946;BME280;52164;52.212;-1.010;2023-03-14T07:51:01;99161.10;;;2.91;82.07
62946;BME280;52164;52.212;-1.010;2023-03-14T07:53:26;99171.86;;;2.91;82.14
62946;BME280;52164;52.212;-1.010;2023-03-14T07:55:52;99180.86;;;2.92;81.95
62946;BME280;52164;52.212;-1.010;2023-03-14T07:58:18;99189.70;;;2.95;82.01
62946;BME280;52164;52.212;-1.010;2023-03-14T08:00:43;99200.66;;;2.99;81.85
62946;BME280;52164;52.212;-1.010;2023-03-14T08:03:09;99205.67;;;3.06;82.11
62946;BME280;52164;52.212;-1.010;2023-03-14T08:05:35;99212.96;;;3.14;82.32
62946;BME280;52164;52.212;-1.010;2023-03-14T08:08:00;99217.61;;;3.21;82.21
62946;BME280;52164;52.212;-1.010;2023-03-14T08:10:26;99226.82;;;3.27;81.92
62946;BME280;52164;52.212;-1.010;2023-03-14T08:12:53;99234.81;;;3.33;81.86
62946;BME280;52164;52.212;-1.010;2023-03-14T08:15:19;99244.23;;;3.41;81.91
62946;BME280;52164;52.212;-1.010;2023-03-14T08:17:45;99249.42;;;3.49;81.41
62946;BME280;52164;52.212;-1.010;2023-03-14T08:20:10;99250.85;;;3.53;81.33
62946;BME280;52164;52.212;-1.010;2023-03-14T08:22:37;99252.81;;;3.56;80.83
62946;BME280;52164;52.212;-1.010;2023-03-14T08:25:06;99257.77;;;3.57;80.94
62946;BME280;52164;52.212;-1.010;2023-03-14T08:27:32;99267.84;;;3.59;80.86
62946;BME280;52164;52.212;-1.010;2023-03-14T08:29:57;99276.16;;;3.62;80.88
62946;BME280;52164;52.212;-1.010;2023-03-14T08:32:22;99286.45;;;3.68;80.95
62946;BME280;52164;52.212;-1.010;2023-03-14T08:34:48;99292.50;;;3.76;81.03
62946;BME280;52164;52.212;-1.010;2023-03-14T08:37:14;99295.55;;;3.81;80.81
62946;BME280;52164;52.212;-1.010;2023-03-14T08:39:39;99301.77;;;3.87;80.74
62946;BME280;52164;52.212;-1.010;2023-03-14T08:42:04;99313.99;;;3.93;80.73
62946;BME280;52164;52.212;-1.010;2023-03-14T08:44:30;99319.67;;;3.96;80.53
62946;BME280;52164;52.212;-1.010;2023-03-14T08:46:55;99332.93;;;4.00;80.30
62946;BME280;52164;52.212;-1.010;2023-03-14T08:49:20;99348.33;;;4.03;80.33
62946;BME280;52164;52.212;-1.010;2023-03-14T08:51:46;99353.44;;;4.04;80.25
62946;BME280;52164;52.212;-1.010;2023-03-14T08:54:11;99363.52;;;4.07;80.48
62946;BME280;52164;52.212;-1.010;2023-03-14T08:56:37;99371.84;;;4.07;80.38
62946;BME280;52164;52.212;-1.010;2023-03-14T08:59:03;99374.30;;;4.07;80.14
62946;BME280;52164;52.212;-1.010;2023-03-14T09:01:33;99386.34;;;4.12;80.08
62946;BME280;52164;52.212;-1.010;2023-03-14T09:03:58;99390.98;;;4.16;80.12
62946;BME280;52164;52.212;-1.010;2023-03-14T09:06:23;99399.87;;;4.25;80.19
62946;BME280;52164;52.212;-1.010;2023-03-14T09:08:49;99405.40;;;4.33;79.78
62946;BME280;52164;52.212;-1.010;2023-03-14T09:11:14;99401.92;;;4.40;79.46
62946;BME280;52164;52.212;-1.010;2023-03-14T09:13:40;99414.66;;;4.45;79.11
62946;BME280;52164;52.212;-1.010;2023-03-14T09:16:05;99423.33;;;4.45;78.97
62946;BME280;52164;52.212;-1.010;2023-03-14T09:18:31;99425.80;;;4.45;79.29
62946;BME280;52164;52.212;-1.010;2023-03-14T09:20:56;99438.02;;;4.47;79.18
62946;BME280;52164;52.212;-1.010;2023-03-14T09:23:22;99441.20;;;4.49;79.00
62946;BME280;52164;52.212;-1.010;2023-03-14T09:25:47;99448.30;;;4.52;78.80
62946;BME280;52164;52.212;-1.010;2023-03-14T09:28:12;99447.61;;;4.56;78.51
62946;BME280;52164;52.212;-1.010;2023-03-14T09:30:38;99454.59;;;4.68;78.56
62946;BME280;52164;52.212;-1.010;2023-03-14T09:33:03;99460.60;;;4.67;78.23
62946;BME280;52164;52.212;-1.010;2023-03-14T09:35:28;99473.29;;;4.61;77.63
62946;BME280;52164;52.212;-1.010;2023-03-14T09:37:54;99473.64;;;4.62;77.58
62946;BME280;52164;52.212;-1.010;2023-03-14T09:40:19;99477.21;;;4.67;77.64
62946;BME280;52164;52.212;-1.010;2023-03-14T09:42:50;99478.14;;;4.72;77.42
62946;BME280;52164;52.212;-1.010;2023-03-14T09:45:24;99483.31;;;4.80;77.26
62946;BME280;52164;52.212;-1.010;2023-03-14T09:47:50;99486.42;;;4.97;77.08
62946;BME280;52164;52.212;-1.010;2023-03-14T09:50:17;99495.35;;;5.09;77.09
62946;BME280;52164;52.212;-1.010;2023-03-14T09:52:42;99501.89;;;5.09;76.90
62946;BME280;52164;52.212;-1.010;2023-03-14T09:55:12;99511.60;;;5.08;76.76
62946;BME280;52164;52.212;-1.010;2023-03-14T09:57:39;99514.30;;;5.16;76.45
62946;BME280;52164;52.212;-1.010;2023-03-14T10:00:14;99519.77;;;5.45;76.11
62946;BME280;52164;52.212;-1.010;2023-03-14T10:02:47;99533.34;;;5.73;75.83
62946;BME280;52164;52.212;-1.010;2023-03-14T10:05:17;99546.27;;;5.76;76.17
62946;BME280;52164;52.212;-1.010;2023-03-14T10:07:43;99553.91;;;5.83;75.70
62946;BME280;52164;52.212;-1.010;2023-03-14T10:10:10;99561.10;;;6.05;75.10
62946;BME280;52164;52.212;-1.010;2023-03-14T10:12:36;99565.19;;;6.08;74.59
62946;BME280;52164;52.212;-1.010;2023-03-14T10:15:06;99566.42;;;6.07;73.99
62946;BME280;52164;52.212;-1.010;2023-03-14T10:17:38;99572.30;;;6.16;74.01
62946;BME280;52164;52.212;-1.010;2023-03-14T10:20:04;99578.02;;;6.39;74.25
62946;BME280;52164;52.212;-1.010;2023-03-14T10:22:30;99573.98;;;6.66;74.09
62946;BME280;52164;52.212;-1.010;2023-03-14T10:24:57;99577.90;;;6.83;73.79
62946;BME280;52164;52.212;-1.010;2023-03-14T10:27:29;99587.12;;;6.87;73.30
62946;BME280;52164;52.212;-1.010;2023-03-14T10:29:56;99585.52;;;6.85;72.32
62946;BME280;52164;52.212;-1.010;2023-03-14T10:32:23;99587.48;;;6.98;72.54
62946;BME280;52164;52.212;-1.010;2023-03-14T10:35:25;99595.44;;;7.18;71.95
62946;BME280;52164;52.212;-1.010;2023-03-14T10:38:44;99604.67;;;7.26;71.27
62946;BME280;52164;52.212;-1.010;2023-03-14T10:40:26;99613.36;;;7.13;71.84
62946;BME280;52164;52.212;-1.010;2023-03-14T10:42:52;99618.87;;;6.99;71.32
62946;BME280;52164;52.212;-1.010;2023-03-14T10:45:34;99619.58;;;6.90;71.38
62946;BME280;52164;52.212;-1.010;2023-03-14T10:48:18;99621.17;;;6.83;71.81
62946;BME280;52164;52.212;-1.010;2023-03-14T10:50:49;99625.94;;;6.76;71.57
62946;BME280;52164;52.212;-1.010;2023-03-14T10:53:16;99630.02;;;6.73;71.04
62946;BME280;52164;52.212;-1.010;2023-03-14T10:55:42;99637.11;;;6.69;71.61
62946;BME280;52164;52.212;-1.010;2023-03-14T10:58:25;99643.86;;;6.73;71.00
62946;BME280;52164;52.212;-1.010;2023-03-14T11:00:54;99645.27;;;6.76;71.13
62946;BME280;52164;52.212;-1.010;2023-03-14T11:03:22;99653.27;;;6.80;70.76
62946;BME280;52164;52.212;-1.010;2023-03-14T11:05:52;99663.22;;;6.98;70.65
62946;BME280;52164;52.212;-1.010;2023-03-14T11:08:37;99673.34;;;7.22;69.63
62946;BME280;52164;52.212;-1.010;2023-03-14T11:11:36;99680.45;;;7.43;69.30
62946;BME280;52164;52.212;-1.010;2023-03-14T11:13:54;99683.98;;;7.58;68.50
62946;BME280;52164;52.212;-1.010;2023-03-14T11:16:57;99693.91;;;7.62;67.46
62946;BME280;52164;52.212;-1.010;2023-03-14T11:21:23;99698.38;;;7.52;67.39
62946;BME280;52164;52.212;-1.010;2023-03-14T11:21:57;99704.23;;;7.52;67.37
62946;BME280;52164;52.212;-1.010;2023-03-14T11:29:37;99731.00;;;7.88;66.57
62946;BME280;52164;52.212;-1.010;2023-03-14T11:32:07;99734.93;;;7.79;66.55
62946;BME280;52164;52.212;-1.010;2023-03-14T11:34:44;99735.64;;;7.75;65.84
62946;BME280;52164;52.212;-1.010;2023-03-14T11:37:29;99742.58;;;7.67;65.25
62946;BME280;52164;52.212;-1.010;2023-03-14T11:40:00;99732.62;;;7.72;64.27
62946;BME280;52164;52.212;-1.010;2023-03-14T11:42:29;99734.05;;;7.65;64.32
62946;BME280;52164;52.212;-1.010;2023-03-14T11:44:55;99734.05;;;7.52;64.16
62946;BME280;52164;52.212;-1.010;2023-03-14T11:47:24;99737.42;;;7.48;64.10
62946;BME280;52164;52.212;-1.010;2023-03-14T11:55:48;99734.59;;;7.48;63.04
62946;BME280;52164;52.212;-1.010;2023-03-14T11:57:30;99736.73;;;7.47;63.17
62946;BME280;52164;52.212;-1.010;2023-03-14T12:02:25;99739.73;;;7.57;62.53
62946;BME280;52164;52.212;-1.010;2023-03-14T12:04:55;99750.39;;;7.62;62.70
62946;BME280;52164;52.212;-1.010;2023-03-14T12:07:27;99747.38;;;7.71;61.90
62946;BME280;52164;52.212;-1.010;2023-03-14T12:09:54;99749.67;;;7.79;61.49
62946;BME280;52164;52.212;-1.010;2023-03-14T12:12:22;99744.52;;;7.82;61.69
62946;BME280;52164;52.212;-1.010;2023-03-14T12:14:56;99756.24;;;7.85;61.98
62946;BME280;52164;52.212;-1.010;2023-03-14T12:17:25;99751.26;;;7.90;60.52
62946;BME280;52164;52.212;-1.010;2023-03-14T12:20:23;99760.13;;;8.01;59.80
62946;BME280;52164;52.212;-1.010;2023-03-14T12:22:37;99765.24;;;8.16;58.60
62946;BME280;52164;52.212;-1.010;2023-03-14T12:25:15;99764.88;;;8.24;58.91
62946;BME280;52164;52.212;-1.010;2023-03-14T12:27:47;99773.05;;;8.26;58.84
62946;BME280;52164;52.212;-1.010;2023-03-14T12:30:23;99779.11;;;8.20;58.96
62946;BME280;52164;52.212;-1.010;2023-03-14T12:35:06;99780.33;;;8.30;58.67
62946;BME280;52164;52.212;-1.010;2023-03-14T12:35:36;99781.73;;;8.35;58.56
62946;BME280;52164;52.212;-1.010;2023-03-14T12:38:03;99786.73;;;8.34;58.03
62946;BME280;52164;52.212;-1.010;2023-03-14T12:40:33;99783.88;;;8.40;57.61
62946;BME280;52164;52.212;-1.010;2023-03-14T12:43:04;99789.33;;;8.63;58.86
62946;BME280;52164;52.212;-1.010;2023-03-14T12:45:31;99791.46;;;8.64;58.01
62946;BME280;52164;52.212;-1.010;2023-03-14T12:48:01;99793.94;;;8.65;57.67
62946;BME280;52164;52.212;-1.010;2023-03-14T12:50:30;99800.18;;;8.63;57.08
62946;BME280;52164;52.212;-1.010;2023-03-14T12:57:39;99795.40;;;8.57;56.52
62946;BME280;52164;52.212;-1.010;2023-03-14T12:58:12;99800.91;;;8.55;57.36
62946;BME280;52164;52.212;-1.010;2023-03-14T13:00:40;99805.04;;;8.40;57.11
62946;BME280;52164;52.212;-1.010;2023-03-14T13:03:23;99806.66;;;8.20;56.80
62946;BME280;52164;52.212;-1.010;2023-03-14T13:05:53;99803.12;;;8.07;56.87
62946;BME280;52164;52.212;-1.010;2023-03-14T13:08:51;99810.41;;;8.04;57.25
62946;BME280;52164;52.212;-1.010;2023-03-14T13:11:05;99806.64;;;8.29;57.26
62946;BME280;52164;52.212;-1.010;2023-03-14T13:13:33;99806.42;;;8.60;56.97
62946;BME280;52164;52.212;-1.010;2023-03-14T13:16:00;99803.09;;;8.92;55.44
62946;BME280;52164;52.212;-1.010;2023-03-14T13:20:58;99804.55;;;9.46;54.93
62946;BME280;52164;52.212;-1.010;2023-03-14T13:23:27;99801.85;;;9.74;54.82